Time;durP1;ratioP1;P1;durP2;ratioP2;P2;SDS_P1;SDS_P2;PMS_P1;PMS_P2;Temp;Humidity;BMP_temperature;BMP_pressure;BME280_temperature;BME280_humidity;BME280_pressure;Samples;Min_cycle;Max_cycle;Signal;HPM_P1;HPM_P2
2022/01/09 00:00:06;;;;;;;12.10;11.20;;;;;;;1.44;88.28;99143.06;4975856;28;20467;-47
2022/01/09 00:02:34;;;;;;;11.80;10.90;;;;;;;1.41;88.20;99135.53;4975221;28;20992;-45
2022/01/09 00:05:02;;;;;;;12.27;11.17;;;;;;;1.40;87.91;99128.69;4976204;28;20430;-44
2022/01/09 00:07:30;;;;;;;12.63;11.70;;;;;;;1.43;87.72;99128.31;4976008;28;20449;-46
2022/01/09 00:09:58;;;;;;;12.57;11.50;;;;;;;1.39;87.74;99131.47;4975907;28;20523;-46
2022/01/09 00:12:26;;;;;;;11.77;10.80;;;;;;;1.40;87.74;99128.69;4975137;28;20495;-47
2022/01/09 00:14:54;;;;;;;12.10;10.93;;;;;;;1.40;88.26;99131.31;4975537;28;20537;-47
2022/01/09 00:17:21;;;;;;;12.87;11.57;;;;;;;1.42;87.43;99120.59;4975877;28;20569;-48
2022/01/09 00:19:49;;;;;;;16.40;12.93;;;;;;;1.42;87.19;99110.91;4975630;28;20463;-47
2022/01/09 00:22:20;;;;;;;13.63;12.23;;;;;;;1.47;87.40;99118.25;4975082;28;20551;-49
2022/01/09 00:24:49;;;;;;;13.17;11.97;;;;;;;1.48;87.38;99112.00;4975680;28;20441;-49
2022/01/09 00:27:17;;;;;;;12.87;11.70;;;;;;;1.49;88.37;99116.28;4975373;28;20867;-46
2022/01/09 00:29:45;;;;;;;12.13;11.13;;;;;;;1.47;88.07;99105.94;4975346;28;20547;-48
2022/01/09 00:32:12;;;;;;;13.97;12.60;;;;;;;1.46;87.57;99103.50;4974700;28;21065;-45
2022/01/09 00:34:40;;;;;;;13.43;12.13;;;;;;;1.44;87.38;99100.22;4975529;28;20958;-49
2022/01/09 00:37:08;;;;;;;13.40;12.10;;;;;;;1.47;86.36;99086.72;4975336;28;21009;-46
2022/01/09 00:39:35;;;;;;;13.37;12.07;;;;;;;1.48;86.44;99096.25;4974645;28;20459;-46
2022/01/09 00:42:05;;;;;;;12.63;11.43;;;;;;;1.49;86.67;99084.75;4974640;28;20478;-48
2022/01/09 00:44:33;;;;;;;13.80;12.40;;;;;;;1.50;86.80;99092.44;4975036;28;20954;-45
2022/01/09 00:47:01;;;;;;;13.13;11.93;;;;;;;1.53;86.31;99088.66;4975279;28;20523;-49
2022/01/09 00:49:28;;;;;;;14.83;12.60;;;;;;;1.57;86.64;99084.69;4975201;28;20982;-46
2022/01/09 00:51:56;;;;;;;12.47;11.27;;;;;;;1.60;86.54;99076.44;4974442;28;21071;-45
2022/01/09 00:54:23;;;;;;;12.80;11.70;;;;;;;1.59;87.28;99072.16;4974911;28;20534;-48
2022/01/09 00:56:51;;;;;;;13.93;10.90;;;;;;;1.59;87.36;99074.78;4974873;28;20475;-45
2022/01/09 00:59:20;;;;;;;12.70;10.90;;;;;;;1.59;87.35;99083.50;4975055;28;20465;-47
2022/01/09 01:01:48;;;;;;;11.90;10.80;;;;;;;1.60;87.84;99072.00;4974299;28;20463;-46
2022/01/09 01:04:16;;;;;;;12.63;11.37;;;;;;;1.62;87.65;99069.19;4974874;28;20427;-47
2022/01/09 01:06:44;;;;;;;12.37;11.27;;;;;;;1.64;87.59;99068.00;4974780;28;20550;-44
2022/01/09 01:09:11;;;;;;;13.33;10.63;;;;;;;1.62;88.28;99062.13;4974814;28;20814;-48
2022/01/09 01:11:39;;;;;;;12.53;11.43;;;;;;;1.65;87.89;99069.63;4974350;28;20547;-47
2022/01/09 01:14:07;;;;;;;13.40;11.80;;;;;;;1.65;88.01;99064.38;5005347;23;21340;-41
2022/01/09 01:16:36;;;;;;;16.27;11.37;;;;;;;1.64;88.61;99059.31;5013472;28;20472;-43
2022/01/09 01:19:04;;;;;;;12.93;11.83;;;;;;;1.70;88.54;99060.41;5013758;28;20437;-42
2022/01/09 01:21:32;;;;;;;12.57;11.50;;;;;;;1.72;88.81;99063.66;5012927;28;20469;-41
2022/01/09 01:24:00;;;;;;;15.43;11.83;;;;;;;1.73;89.45;99060.88;5013381;28;20439;-42
2022/01/09 01:26:28;;;;;;;13.17;11.73;;;;;;;1.73;89.64;99057.41;5013584;28;20433;-42
2022/01/09 01:28:55;;;;;;;13.50;11.37;;;;;;;1.70;89.27;99055.16;5013774;28;20797;-43
2022/01/09 01:31:23;;;;;;;12.13;11.13;;;;;;;1.77;89.53;99063.94;5012893;28;20919;-41
2022/01/09 01:33:52;;;;;;;11.57;10.57;;;;;;;1.75;89.66;99052.78;5013332;28;20800;-42
2022/01/09 01:36:19;;;;;;;13.03;11.93;;;;;;;1.76;89.49;99049.19;5013271;28;20477;-43
2022/01/09 01:38:47;;;;;;;12.07;10.93;;;;;;;1.79;89.45;99046.19;5013379;28;20517;-42
2022/01/09 01:41:15;;;;;;;12.33;11.03;;;;;;;1.75;89.92;99037.03;5012624;28;20540;-41
2022/01/09 01:43:42;;;;;;;12.67;11.50;;;;;;;1.79;89.53;99048.81;5013196;28;20437;-43
2022/01/09 01:46:10;;;;;;;12.27;11.37;;;;;;;1.77;89.60;99046.34;5013284;28;20437;-45
2022/01/09 01:48:38;;;;;;;12.63;11.53;;;;;;;1.78;89.75;99036.66;5013057;28;20437;-41
2022/01/09 01:51:07;;;;;;;12.73;11.10;;;;;;;1.81;89.93;99034.50;5015617;28;20468;-43
2022/01/09 01:53:35;;;;;;;11.80;10.70;;;;;;;1.83;90.30;99034.28;5032717;28;20947;-42
2022/01/09 01:56:03;;;;;;;12.67;11.47;;;;;;;1.81;90.50;99041.56;5032623;28;20920;-42
2022/01/09 01:58:34;;;;;;;11.97;11.03;;;;;;;1.81;91.07;99047.63;5032759;28;20977;-43
2022/01/09 02:01:03;;;;;;;13.03;10.67;;;;;;;1.85;91.07;99043.63;5028660;28;20540;-42
2022/01/09 02:03:30;;;;;;;10.60;9.60;;;;;;;1.81;91.32;99044.19;5013016;28;20433;-42
2022/01/09 02:05:59;;;;;;;11.53;10.00;;;;;;;1.82;91.28;99041.38;5012890;28;20826;-42
2022/01/09 02:08:27;;;;;;;11.60;10.70;;;;;;;1.86;91.47;99039.19;5012584;28;20528;-43
2022/01/09 02:10:55;;;;;;;12.33;11.13;;;;;;;1.85;91.90;99033.09;5012185;28;20429;-42
2022/01/09 02:13:23;;;;;;;12.73;10.70;;;;;;;1.88;91.98;99038.00;5012845;28;20435;-42
2022/01/09 02:15:56;;;;;;;11.37;10.50;;;;;;;1.87;92.28;99040.81;5012390;28;20975;-41
2022/01/09 02:18:24;;;;;;;11.37;10.40;;;;;;;1.87;92.34;99030.31;5012990;28;20453;-42
2022/01/09 02:20:54;;;;;;;11.37;10.27;;;;;;;1.89;92.65;99033.56;5012009;28;20432;-41
2022/01/09 02:23:21;;;;;;;11.70;10.80;;;;;;;1.91;92.47;99034.22;5012474;28;20505;-41
2022/01/09 02:25:50;;;;;;;12.40;11.13;;;;;;;1.89;92.63;99029.13;5012327;28;20456;-42
2022/01/09 02:28:19;;;;;;;11.97;10.53;;;;;;;1.92;92.58;99027.94;5012297;28;20485;-42
2022/01/09 02:30:49;;;;;;;13.40;11.03;;;;;;;1.93;92.37;99025.16;5011651;28;20959;-41
2022/01/09 02:33:18;;;;;;;11.57;10.57;;;;;;;1.92;92.83;99015.63;5012619;28;20529;-42
2022/01/09 02:35:49;;;;;;;11.37;10.57;;;;;;;1.92;93.35;99025.31;5012308;28;20540;-42
2022/01/09 02:38:19;;;;;;;10.80;9.80;;;;;;;1.90;93.03;99012.38;5012336;28;20527;-44
2022/01/09 02:40:50;;;;;;;9.77;8.97;;;;;;;1.93;93.09;99014.63;5011365;28;20551;-42
2022/01/09 02:43:18;;;;;;;15.10;11.70;;;;;;;1.93;93.77;99009.38;5012411;28;20871;-42
2022/01/09 02:45:51;;;;;;;11.90;10.60;;;;;;;1.93;93.96;99019.91;5012130;28;20480;-42
2022/01/09 02:48:19;;;;;;;10.17;9.47;;;;;;;1.95;94.02;99017.88;5012411;28;20516;-42
2022/01/09 02:50:59;;;;;;;10.40;9.60;;;;;;;1.92;94.31;99009.53;5011403;28;20528;-41
2022/01/09 02:53:30;;;;;;;11.70;10.60;;;;;;;1.94;94.20;99015.44;5012298;28;20441;-42
2022/01/09 02:55:57;;;;;;;11.17;10.10;;;;;;;1.98;94.02;99007.00;5012211;28;20461;-42
2022/01/09 02:58:25;;;;;;;11.57;10.67;;;;;;;1.93;94.54;99011.19;5012254;28;20838;-41
2022/01/09 03:00:53;;;;;;;10.73;9.87;;;;;;;2.01;94.38;99019.78;5011460;28;20429;-41
2022/01/09 03:03:20;;;;;;;11.97;9.90;;;;;;;1.97;94.81;99010.63;5011731;28;20479;-42
2022/01/09 03:05:48;;;;;;;10.90;9.80;;;;;;;1.99;94.47;99011.28;5011971;28;20457;-42
2022/01/09 03:08:16;;;;;;;10.70;9.80;;;;;;;2.00;94.51;99012.88;5012118;28;20429;-41
2022/01/09 03:10:45;;;;;;;10.97;10.23;;;;;;;1.99;94.86;99008.66;5011375;28;20439;-42
2022/01/09 03:13:13;;;;;;;9.43;8.83;;;;;;;2.03;94.90;99015.16;5012135;28;20531;-41
2022/01/09 03:15:41;;;;;;;10.50;9.70;;;;;;;2.06;94.73;99006.88;5011711;28;20465;-42
2022/01/09 03:18:09;;;;;;;9.67;9.07;;;;;;;2.07;94.77;99021.69;5011695;28;20944;-43
2022/01/09 03:20:36;;;;;;;10.30;9.40;;;;;;;2.06;95.23;99006.88;5011868;28;20465;-41
2022/01/09 03:23:04;;;;;;;9.63;8.67;;;;;;;2.07;95.38;99015.59;5011678;28;20452;-42
2022/01/09 03:25:32;;;;;;;10.30;9.40;;;;;;;2.09;95.17;99019.66;5011877;28;20528;-41
2022/01/09 03:28:01;;;;;;;10.07;9.20;;;;;;;2.09;95.18;99013.63;5011843;28;20429;-42
2022/01/09 03:30:29;;;;;;;9.57;8.87;;;;;;;2.10;95.38;99012.59;5011395;28;20431;-42
2022/01/09 03:32:57;;;;;;;10.37;9.27;;;;;;;2.09;95.26;99008.38;5011191;28;20554;-41
2022/01/09 03:35:27;;;;;;;10.30;9.57;;;;;;;2.07;95.39;99012.97;5011902;28;20456;-43
2022/01/09 03:37:55;;;;;;;11.07;10.23;;;;;;;2.10;95.25;99015.22;5011740;28;20828;-42
2022/01/09 03:40:25;;;;;;;10.40;9.50;;;;;;;2.08;95.27;99014.59;5011548;28;20429;-41
2022/01/09 03:42:55;;;;;;;10.43;9.53;;;;;;;2.07;95.09;99011.16;5011142;28;20465;-41
2022/01/09 03:45:26;;;;;;;11.00;10.00;;;;;;;2.09;95.05;99016.25;5003285;28;20477;-42
2022/01/09 03:47:54;;;;;;;9.87;9.10;;;;;;;2.09;94.98;99011.00;5009408;28;20884;-43
2022/01/09 03:50:22;;;;;;;10.00;9.17;;;;;;;2.11;94.96;99007.16;5011508;28;20437;-45
2022/01/09 03:52:51;;;;;;;10.10;9.10;;;;;;;2.08;94.80;99010.16;5011043;28;20456;-43
2022/01/09 03:55:21;;;;;;;10.40;9.50;;;;;;;2.09;94.94;99013.63;5011435;28;20460;-41
2022/01/09 03:57:49;;;;;;;10.70;9.70;;;;;;;2.05;95.12;99005.28;5011341;28;20461;-42
2022/01/09 04:00:21;;;;;;;10.43;9.50;;;;;;;2.05;95.14;99013.16;5011663;28;20524;-42
2022/01/09 04:02:51;;;;;;;9.90;9.20;;;;;;;2.06;95.01;99012.16;5011007;28;20472;-41
2022/01/09 04:05:19;;;;;;;11.00;10.00;;;;;;;2.07;94.95;99021.69;5011380;28;20824;-42
2022/01/09 04:07:47;;;;;;;11.20;10.30;;;;;;;2.07;95.00;99012.97;5011527;28;20437;-42
2022/01/09 04:10:32;;;;;;;10.40;9.40;;;;;;;2.09;94.66;99013.63;5011207;28;20932;-42
2022/01/09 04:13:00;;;;;;;10.20;9.40;;;;;;;2.10;95.01;99009.97;5010917;28;20464;-42
2022/01/09 04:15:29;;;;;;;11.87;10.87;;;;;;;2.09;94.73;99019.66;5013732;28;20556;-43
2022/01/09 04:17:58;;;;;;;12.27;10.10;;;;;;;2.10;94.74;99013.41;5014712;28;21059;-42
2022/01/09 04:20:28;;;;;;;10.70;9.80;;;;;;;2.08;94.54;99015.44;5014505;28;20468;-41
2022/01/09 04:22:56;;;;;;;10.30;9.50;;;;;;;2.10;94.03;99016.06;5014266;28;20556;-45
2022/01/09 04:25:24;;;;;;;11.67;10.57;;;;;;;2.11;93.98;99020.31;5014906;28;20449;-41
2022/01/09 04:27:53;;;;;;;11.33;10.30;;;;;;;2.10;94.27;99021.31;5014766;28;20460;-42
2022/01/09 04:30:20;;;;;;;11.63;10.60;;;;;;;2.09;93.87;99013.63;5014487;28;20437;-41
2022/01/09 04:32:48;;;;;;;11.57;10.70;;;;;;;2.10;93.63;99005.53;5014064;28;20465;-43
2022/01/09 04:35:17;;;;;;;11.30;10.30;;;;;;;2.12;93.37;99018.50;5014284;28;20457;-41
2022/01/09 04:37:46;;;;;;;11.53;10.53;;;;;;;2.09;93.70;99017.03;5014329;28;20469;-42
2022/01/09 04:40:15;;;;;;;12.23;10.40;;;;;;;2.11;93.47;99022.13;5014586;28;20532;-41
2022/01/09 04:42:46;;;;;;;12.20;11.00;;;;;;;2.12;93.38;99015.88;5013651;28;20465;-43
2022/01/09 04:45:16;;;;;;;10.40;9.60;;;;;;;2.13;93.87;99020.94;5014221;28;20477;-41
2022/01/09 04:47:47;;;;;;;11.97;10.73;;;;;;;2.14;93.75;99016.50;5014189;28;20443;-41
2022/01/09 04:50:21;;;;;;;11.73;10.53;;;;;;;2.14;93.63;99019.13;5014505;28;20516;-42
2022/01/09 04:52:52;;;;;;;11.47;10.57;;;;;;;2.15;93.81;99024.19;5013724;28;20464;-43
2022/01/09 04:55:20;;;;;;;11.10;10.20;;;;;;;2.14;94.01;99027.03;5014135;28;20488;-42
2022/01/09 04:57:47;;;;;;;11.67;10.80;;;;;;;2.16;94.06;99020.56;5014100;28;20485;-41
2022/01/09 05:00:15;;;;;;;11.07;10.30;;;;;;;2.20;94.13;99026.28;5014047;28;20439;-41
2022/01/09 05:02:43;;;;;;;10.60;9.97;;;;;;;2.20;94.27;99035.00;5013562;28;21067;-41
2022/01/09 05:05:12;;;;;;;10.70;9.90;;;;;;;2.18;94.08;99028.28;5014164;28;20832;-41
2022/01/09 05:07:41;;;;;;;11.70;10.33;;;;;;;2.19;94.05;99033.34;5013937;28;20441;-41
2022/01/09 05:10:10;;;;;;;11.57;10.40;;;;;;;2.20;93.95;99032.38;5013945;28;20521;-42
2022/01/09 05:12:38;;;;;;;12.17;11.03;;;;;;;2.20;94.11;99034.16;5013122;28;21063;-41
2022/01/09 05:15:08;;;;;;;13.20;11.87;;;;;;;2.18;94.35;99041.44;5013481;28;20499;-42
2022/01/09 05:17:36;;;;;;;11.37;10.57;;;;;;;2.21;94.00;99039.22;5013795;28;20441;-42
2022/01/09 05:20:05;;;;;;;11.90;10.83;;;;;;;2.21;94.43;99039.22;5013590;28;20976;-42
2022/01/09 05:22:33;;;;;;;11.80;10.00;;;;;;;2.24;94.06;99032.78;5013131;28;20871;-44
2022/01/09 05:25:06;;;;;;;11.77;10.77;;;;;;;2.21;94.29;99030.56;5013342;28;20453;-42
2022/01/09 05:27:34;;;;;;;10.30;9.50;;;;;;;2.22;94.61;99037.41;5013581;28;20528;-42
2022/01/09 05:30:03;;;;;;;11.03;10.33;;;;;;;2.21;94.41;99038.44;5013567;28;20939;-42
2022/01/09 05:32:30;;;;;;;11.60;10.10;;;;;;;2.25;94.21;99037.06;5012922;28;20457;-42
2022/01/09 05:34:58;;;;;;;11.77;10.97;;;;;;;2.23;94.21;99037.25;5013412;28;20465;-41
2022/01/09 05:37:25;;;;;;;12.00;11.00;;;;;;;2.20;94.33;99042.06;5013701;28;20433;-41
2022/01/09 05:39:53;;;;;;;10.73;10.03;;;;;;;2.24;94.36;99046.75;5013139;28;20556;-42
2022/01/09 05:42:23;;;;;;;10.93;9.87;;;;;;;2.24;94.33;99043.31;5012637;28;20469;-41
2022/01/09 05:44:50;;;;;;;12.77;11.77;;;;;;;2.26;94.41;99045.75;5012957;28;20536;-42
2022/01/09 05:47:18;;;;;;;11.67;10.60;;;;;;;2.23;94.29;99050.41;5013259;28;20518;-42
2022/01/09 05:49:46;;;;;;;10.53;9.83;;;;;;;2.26;94.75;99051.03;5012632;28;20461;-42
2022/01/09 05:52:13;;;;;;;12.43;10.73;;;;;;;2.23;94.25;99052.22;5011826;28;20465;-43
2022/01/09 05:54:41;;;;;;;11.23;10.43;;;;;;;2.22;94.39;99056.66;5013064;28;20463;-41
2022/01/09 05:57:09;;;;;;;13.03;12.10;;;;;;;2.26;94.76;99057.09;5013154;28;20524;-42
2022/01/09 05:59:38;;;;;;;11.60;10.70;;;;;;;2.29;94.36;99059.38;5012983;28;20512;-43
2022/01/09 06:02:07;;;;;;;11.50;10.70;;;;;;;2.32;94.64;99066.88;5012205;28;20465;-41
2022/01/09 06:04:34;;;;;;;11.73;10.77;;;;;;;2.31;94.49;99060.00;5012259;28;20528;-43
2022/01/09 06:07:02;;;;;;;11.73;10.83;;;;;;;2.28;95.21;99068.25;5012675;28;20441;-41
2022/01/09 06:09:29;;;;;;;12.77;11.87;;;;;;;2.29;94.95;99059.38;5012879;28;20430;-42
2022/01/09 06:11:57;;;;;;;12.63;11.60;;;;;;;2.28;94.54;99064.78;5012067;28;20457;-42
2022/01/09 06:14:25;;;;;;;13.20;12.20;;;;;;;2.30;94.66;99068.88;5012681;28;20471;-41
2022/01/09 06:16:54;;;;;;;12.10;11.20;;;;;;;2.29;95.20;99066.44;5012710;28;20528;-42
2022/01/09 06:19:21;;;;;;;12.50;11.50;;;;;;;2.31;94.77;99074.94;5011925;28;20485;-41
2022/01/09 06:21:49;;;;;;;11.57;10.77;;;;;;;2.28;95.15;99073.50;5011931;28;20455;-43
2022/01/09 06:24:16;;;;;;;12.03;10.93;;;;;;;2.29;95.10;99072.53;5012108;28;20552;-41
2022/01/09 06:26:44;;;;;;;12.00;11.00;;;;;;;2.28;95.15;99078.78;5012511;28;20440;-41
2022/01/09 06:29:12;;;;;;;12.67;11.60;;;;;;;2.28;95.24;99083.22;4999745;28;20999;-42
2022/01/09 06:31:40;;;;;;;12.30;11.20;;;;;;;2.26;95.05;99085.22;5009467;28;20469;-41
2022/01/09 06:34:11;;;;;;;14.10;11.07;;;;;;;2.26;94.81;99079.97;5010564;28;20464;-41
2022/01/09 06:36:39;;;;;;;11.70;10.90;;;;;;;2.25;94.84;99089.66;5010538;28;20448;-44
2022/01/09 06:39:07;;;;;;;11.63;10.77;;;;;;;2.22;94.88;99082.13;5010741;28;20883;-43
2022/01/09 06:41:36;;;;;;;12.17;11.10;;;;;;;2.23;94.73;99095.13;5009737;28;20519;-42
2022/01/09 06:44:04;;;;;;;11.97;10.67;;;;;;;2.20;94.70;99105.19;5010068;28;20437;-42
2022/01/09 06:46:32;;;;;;;11.40;10.40;;;;;;;2.18;94.26;99110.59;5010225;28;20492;-41
2022/01/09 06:48:59;;;;;;;12.70;11.60;;;;;;;2.22;94.17;99111.06;5010687;28;20920;-43
2022/01/09 06:51:29;;;;;;;13.83;12.53;;;;;;;2.18;93.88;99110.59;5009748;28;20471;-41
2022/01/09 06:53:56;;;;;;;16.70;15.10;;;;;;;2.18;94.07;99113.22;5010620;28;20441;-42
2022/01/09 06:56:24;;;;;;;13.20;12.00;;;;;;;2.15;93.99;99118.84;5010335;28;20444;-41
2022/01/09 06:58:52;;;;;;;12.87;11.63;;;;;;;2.16;93.87;99114.41;5009971;28;20476;-42
2022/01/09 07:01:19;;;;;;;14.30;12.83;;;;;;;2.14;93.82;99124.31;5009658;28;20477;-42
2022/01/09 07:03:47;;;;;;;13.57;12.47;;;;;;;2.14;93.66;99122.50;5010450;28;20520;-42
2022/01/09 07:06:15;;;;;;;13.70;12.60;;;;;;;2.12;93.79;99127.09;5010487;28;20440;-44
2022/01/09 07:08:44;;;;;;;12.10;11.20;;;;;;;2.11;93.69;99128.13;5009981;28;20441;-42
2022/01/09 07:11:12;;;;;;;12.27;11.13;;;;;;;2.07;93.79;99137.38;5000175;28;20480;-41
2022/01/09 07:13:40;;;;;;;12.40;11.40;;;;;;;2.04;93.48;99132.47;4991963;28;20844;-44
2022/01/09 07:16:08;;;;;;;13.00;11.80;;;;;;;2.04;92.87;99137.72;5033189;23;20512;-47
2022/01/09 07:18:36;;;;;;;12.80;11.60;;;;;;;2.05;92.89;99139.38;5011267;28;20465;-45
2022/01/09 07:21:03;;;;;;;12.93;11.83;;;;;;;2.05;92.90;99142.00;5011186;28;20537;-47
2022/01/09 07:23:31;;;;;;;13.00;12.00;;;;;;;2.01;93.10;99142.53;5011142;28;20859;-47
2022/01/09 07:26:00;;;;;;;13.80;11.70;;;;;;;2.00;92.36;99149.59;5011561;28;20453;-47
2022/01/09 07:28:27;;;;;;;12.50;11.47;;;;;;;2.03;92.40;99149.22;5011907;28;20429;-47
2022/01/09 07:30:55;;;;;;;12.07;11.13;;;;;;;2.00;92.19;99154.84;5013299;28;20435;-44
2022/01/09 07:33:23;;;;;;;12.27;11.27;;;;;;;2.00;92.13;99146.97;5031498;28;20900;-48
2022/01/09 07:35:50;;;;;;;12.50;11.50;;;;;;;2.02;92.65;99152.88;5031421;28;20467;-45
2022/01/09 07:38:18;;;;;;;11.77;10.87;;;;;;;2.00;92.32;99154.06;5031334;28;20599;-46
2022/01/09 07:40:47;;;;;;;13.73;10.67;;;;;;;1.99;91.86;99147.97;5030533;28;20473;-47
2022/01/09 07:43:16;;;;;;;11.47;10.50;;;;;;;2.00;92.13;99161.94;5031401;28;20523;-48
2022/01/09 07:45:43;;;;;;;12.10;11.20;;;;;;;1.95;91.91;99164.28;5031257;28;20484;-46
2022/01/09 07:48:11;;;;;;;11.63;10.80;;;;;;;1.97;91.75;99167.56;5031404;28;20527;-46
2022/01/09 07:50:39;;;;;;;12.10;11.20;;;;;;;1.91;92.29;99179.59;5033487;28;20458;-45
2022/01/09 07:53:06;;;;;;;13.07;11.97;;;;;;;1.93;91.97;99180.25;5034959;28;20806;-46
2022/01/09 07:55:34;;;;;;;12.03;11.00;;;;;;;1.92;92.02;99177.78;5034899;28;20974;-47
2022/01/09 07:58:02;;;;;;;12.57;11.50;;;;;;;1.91;92.13;99187.47;5035079;28;20535;-44
2022/01/09 08:00:31;;;;;;;12.70;11.80;;;;;;;1.93;91.81;99184.69;5034561;28;20563;-48
2022/01/09 08:02:58;;;;;;;13.53;12.43;;;;;;;1.95;91.69;99186.13;5034422;28;20459;-45
2022/01/09 08:05:26;;;;;;;11.70;10.90;;;;;;;1.94;92.10;99184.47;5034700;28;20448;-43
2022/01/09 08:07:54;;;;;;;11.13;10.27;;;;;;;1.94;92.29;99196.84;5034662;28;20547;-44
2022/01/09 08:10:21;;;;;;;11.27;10.43;;;;;;;1.95;92.45;99186.13;5019821;28;21084;-44
2022/01/09 08:12:49;;;;;;;11.90;11.00;;;;;;;1.96;92.48;99195.66;5029148;28;20464;-46
2022/01/09 08:15:17;;;;;;;11.70;10.70;;;;;;;2.01;92.28;99197.72;5032509;28;20555;-46
2022/01/09 08:17:46;;;;;;;12.30;11.50;;;;;;;1.97;92.95;99205.16;5017394;28;20457;-45
2022/01/09 08:20:15;;;;;;;11.60;10.80;;;;;;;1.96;92.81;99207.97;5012836;28;20560;-46
2022/01/09 08:22:44;;;;;;;12.40;11.20;;;;;;;1.97;92.98;99210.41;5012213;28;20457;-44
2022/01/09 08:25:14;;;;;;;12.23;11.27;;;;;;;2.00;93.03;99211.91;5012892;28;21094;-46
2022/01/09 08:27:43;;;;;;;12.50;11.60;;;;;;;1.98;93.40;99214.69;5012880;28;20468;-45
2022/01/09 08:30:12;;;;;;;12.03;10.93;;;;;;;2.03;92.95;99224.69;5012581;28;20808;-45
2022/01/09 08:32:41;;;;;;;16.63;13.37;;;;;;;2.02;93.25;99217.78;5012021;28;20465;-46
2022/01/09 08:35:11;;;;;;;14.88;13.38;;;;;;;2.06;93.01;99213.81;5012466;28;20441;-45
2022/01/09 08:37:41;;;;;;;25.43;19.80;;;;;;;2.04;93.63;99216.59;5012699;28;20199;-45
2022/01/09 08:40:11;;;;;;;19.07;15.50;;;;;;;2.07;93.66;99220.69;5012740;28;20569;-47
2022/01/09 08:42:43;;;;;;;14.43;13.07;;;;;;;2.05;93.76;99220.06;5011874;28;20548;-45
2022/01/09 08:45:11;;;;;;;15.17;13.77;;;;;;;2.10;93.58;99228.22;5028465;28;20454;-45
2022/01/09 08:47:39;;;;;;;13.03;12.03;;;;;;;2.14;93.52;99225.06;5025123;28;20448;-46
2022/01/09 08:50:11;;;;;;;14.00;12.80;;;;;;;2.15;94.04;99229.31;5032012;28;20490;-46
2022/01/09 08:52:39;;;;;;;13.57;12.47;;;;;;;2.17;94.45;99231.78;5015295;28;20469;-46
2022/01/09 08:55:08;;;;;;;13.03;12.03;;;;;;;2.16;94.34;99238.00;5012995;28;20555;-45
2022/01/09 08:57:36;;;;;;;12.73;11.83;;;;;;;2.18;94.60;99236.84;4991501;28;20453;-48
2022/01/09 09:00:05;;;;;;;13.00;12.03;;;;;;;2.18;94.54;99244.72;5005530;28;21020;-45
2022/01/09 09:02:33;;;;;;;12.60;11.70;;;;;;;2.19;94.41;99249.00;5011445;28;20471;-48
2022/01/09 09:05:01;;;;;;;13.67;12.60;;;;;;;2.23;94.44;99245.03;5002414;28;20481;-46
2022/01/09 09:07:30;;;;;;;13.53;12.20;;;;;;;2.27;94.36;99244.66;4992671;28;20871;-46
2022/01/09 09:10:03;;;;;;;13.70;12.67;;;;;;;2.28;94.69;99247.09;4995470;28;20537;-45
2022/01/09 09:12:31;;;;;;;12.77;11.77;;;;;;;2.30;94.89;99249.56;5011512;28;20556;-45
2022/01/09 09:14:59;;;;;;;12.90;11.90;;;;;;;2.22;94.86;99248.63;5011788;28;20473;-48
2022/01/09 09:17:27;;;;;;;13.40;12.17;;;;;;;2.23;94.93;99252.09;5011961;28;20447;-48
2022/01/09 09:19:55;;;;;;;14.17;12.80;;;;;;;2.19;94.50;99261.31;5011407;28;20491;-45
2022/01/09 09:22:22;;;;;;;16.20;14.90;;;;;;;2.25;94.02;99255.34;5011305;28;20942;-46
2022/01/09 09:24:52;;;;;;;18.50;15.47;;;;;;;2.32;94.17;99264.16;5011368;28;20548;-45
2022/01/09 09:27:20;;;;;;;14.80;13.50;;;;;;;2.35;94.23;99265.63;5012066;28;20868;-46
2022/01/09 09:29:48;;;;;;;13.50;12.37;;;;;;;2.36;94.66;99270.69;5011427;28;20433;-45
2022/01/09 09:32:16;;;;;;;12.63;11.73;;;;;;;2.33;94.85;99275.50;5010972;28;20491;-45
2022/01/09 09:34:43;;;;;;;12.63;11.50;;;;;;;2.32;95.11;99279.94;5011330;28;20556;-45
2022/01/09 09:37:12;;;;;;;10.90;10.10;;;;;;;2.36;95.10;99281.22;5011568;28;20848;-44
2022/01/09 09:39:39;;;;;;;14.00;12.70;;;;;;;2.37;94.75;99285.47;5011303;28;20439;-47
2022/01/09 09:42:09;;;;;;;12.70;11.70;;;;;;;2.40;95.04;99281.66;5010737;28;20560;-44
2022/01/09 09:44:37;;;;;;;12.63;11.63;;;;;;;2.45;94.86;99288.03;5011305;28;20528;-45
2022/01/09 09:47:07;;;;;;;11.50;10.70;;;;;;;2.50;94.98;99295.41;5002496;28;20437;-46
2022/01/09 09:49:35;;;;;;;13.00;11.90;;;;;;;2.51;95.37;99294.41;5011176;28;20532;-44
2022/01/09 09:52:02;;;;;;;11.97;11.00;;;;;;;2.60;95.24;99295.94;5010379;28;20556;-48
2022/01/09 09:54:30;;;;;;;12.33;11.43;;;;;;;2.67;95.28;99304.75;5011218;28;20543;-49
2022/01/09 09:56:58;;;;;;;12.40;11.50;;;;;;;2.76;95.16;99303.66;5011360;28;20441;-47
2022/01/09 09:59:35;;;;;;;12.03;11.13;;;;;;;2.85;95.59;99313.09;5007931;28;20796;-45
2022/01/09 10:02:09;;;;;;;11.40;10.60;;;;;;;2.95;95.53;99304.94;5010451;28;20497;-46
2022/01/09 10:04:37;;;;;;;11.47;10.57;;;;;;;3.01;95.88;99310.28;5010878;28;20445;-45
2022/01/09 10:07:05;;;;;;;11.70;10.80;;;;;;;3.10;96.00;99313.66;5011002;28;20473;-44
2022/01/09 10:09:33;;;;;;;11.60;10.60;;;;;;;3.20;95.97;99320.25;5001298;28;21124;-46
2022/01/09 10:12:01;;;;;;;11.90;10.80;;;;;;;3.24;96.25;99318.06;4989964;28;20470;-46
2022/01/09 10:14:31;;;;;;;13.27;11.73;;;;;;;3.28;96.58;99322.81;4991013;28;20553;-47
2022/01/09 10:17:11;;;;;;;14.17;12.97;;;;;;;3.31;96.54;99325.06;4999706;28;20447;-45
2022/01/09 10:19:47;;;;;;;13.63;12.47;;;;;;;3.34;96.03;99326.50;5007650;28;20477;-45
2022/01/09 10:22:40;;;;;;;12.80;11.80;;;;;;;3.38;96.15;99326.94;5009530;28;20556;-47
2022/01/09 10:25:33;;;;;;;13.17;11.90;;;;;;;3.31;95.77;99325.06;5009719;28;20536;-45
2022/01/09 10:28:04;;;;;;;12.20;11.20;;;;;;;3.37;96.21;99326.16;5000458;28;20868;-46
2022/01/09 10:30:36;;;;;;;13.33;12.33;;;;;;;3.48;96.26;99338.84;5009966;28;20457;-45
2022/01/09 10:33:07;;;;;;;12.30;11.30;;;;;;;3.53;96.27;99330.34;5009975;28;20429;-45
2022/01/09 10:35:35;;;;;;;13.20;12.10;;;;;;;3.51;96.14;99333.19;5010247;28;20453;-44
2022/01/09 10:38:12;;;;;;;12.17;11.27;;;;;;;3.55;95.97;99334.47;5010206;28;20443;-45
2022/01/09 10:40:41;;;;;;;14.07;12.80;;;;;;;3.56;95.86;99333.44;5009586;28;20591;-44
2022/01/09 10:43:12;;;;;;;14.93;13.37;;;;;;;3.60;95.77;99345.25;5010100;28;20528;-47
2022/01/09 10:45:44;;;;;;;18.30;16.30;;;;;;;3.67;95.73;99345.34;5002020;28;20449;-47
2022/01/09 10:48:13;;;;;;;16.20;14.63;;;;;;;3.69;95.93;99345.97;5009612;28;20424;-45
2022/01/09 10:50:42;;;;;;;14.10;12.70;;;;;;;3.69;95.54;99352.06;5009461;28;20433;-45
2022/01/09 10:53:21;;;;;;;14.30;12.93;;;;;;;3.71;95.79;99351.84;5009971;28;20522;-46
2022/01/09 10:56:02;;;;;;;14.47;13.10;;;;;;;3.79;96.06;99357.81;5010237;28;20449;-50
2022/01/09 10:58:30;;;;;;;13.83;12.53;;;;;;;3.80;95.68;99356.00;5009444;28;20435;-46
2022/01/09 11:01:25;;;;;;;14.20;13.03;;;;;;;3.84;96.01;99367.84;5008301;28;23433;-45
2022/01/09 11:03:55;;;;;;;15.17;13.87;;;;;;;3.80;95.65;99370.03;4980565;28;20438;-47
2022/01/09 11:06:24;;;;;;;13.90;12.57;;;;;;;3.79;95.60;99376.28;4990334;28;20462;-48
2022/01/09 11:08:52;;;;;;;13.90;12.83;;;;;;;3.76;95.46;99373.22;5008472;28;20516;-46
2022/01/09 11:11:28;;;;;;;14.90;13.60;;;;;;;3.69;95.54;99380.22;4998788;28;20561;-46
2022/01/09 11:13:58;;;;;;;44.27;26.10;;;;;;;3.65;95.96;99382.41;4990460;28;20430;-45
2022/01/09 11:16:34;;;;;;;61.27;30.40;;;;;;;3.66;96.12;99385.88;5006370;28;20572;-48
2022/01/09 11:19:05;;;;;;;40.30;26.13;;;;;;;3.68;96.26;99397.88;4994217;28;20455;-45
2022/01/09 11:21:34;;;;;;;19.37;17.60;;;;;;;3.64;95.63;99398.44;4992730;28;20509;-48
2022/01/09 11:24:54;;;;;;;18.47;16.53;;;;;;;3.68;95.76;99399.69;4991901;28;20959;-44
2022/01/09 11:27:28;;;;;;;23.30;20.90;;;;;;;3.65;96.37;99400.88;5010270;28;20449;-45
2022/01/09 11:30:05;;;;;;;21.93;19.73;;;;;;;3.61;96.08;99401.44;5013094;28;20437;-45
2022/01/09 11:32:45;;;;;;;18.93;17.13;;;;;;;3.63;96.28;99405.53;5012947;28;20544;-49
2022/01/09 11:35:23;;;;;;;16.03;14.50;;;;;;;3.64;96.05;99406.34;4993742;28;20453;-49